Wauconda, Illinois
Current Conditions -  °F | °C
As of 1:52 AM on Saturday 25 Oct 2014 (Local Time) from KPWK Reporting Station
Few Clouds Few Clouds  
Wind Chill: 57°   Ceiling: Unl
Heat Index: 57°   Visibility: 10mi
Dew Point: 49°   Wind: 6mph
Humidity: 74%   Direction: 200°SSW
Pressure: 29.9"   Gusts: NA
Location:  42.26°N, 88.14°W
Report Text: KPWK 250652Z AUTO 20005KT 10SM FEW016 14/09 A2990 RMK AO2 SLP124 T01390094
Loading
Personal Weather Stations






























Interactive Weather Map
Tropical Storm Tracking
New forecast layout! Learn more

10-Day Weather Forecast

Advertisements
Track Severe Weather on mobile